Arch, New Mexico
Current Conditions -  °F | °C
As of 6:58 AM on Monday 24 Nov 2014 (Local Time) from KCVS Reporting Station
Clear Clear  
Wind Chill: -8°   Ceiling: Unl
Heat Index: -3°   Visibility: 10mi
Dew Point: -5°   Wind: 8mph
Humidity: 88%   Direction: 300°WNW
Pressure: 30.04"   Gusts: NA
Location:  34.1669°N, 103.266°W
Report Text: KCVS 241358Z AUTO 30007KT 10SM CLR M03/M05 A3004 RMK AO2 SLP185 T10301048 $
Loading
Personal Weather Stations






























Interactive Weather Map New forecast layout! Learn more

10-Day Weather Forecast

Advertisements
Track Severe Weather on mobile